Weather History for KOTH - October, 2014

Change the Weather History Date:

Saturday, October 18, 2014

  Actual Average Record
Temperature  
Mean Temperature 66 °F 53 °F  
Max Temperature 70 °F 61 °F 85 °F (1964)
Min Temperature 61 °F 46 °F 31 °F (1908)
Degree Days  
Heating Degree Days 0 12  
Month to date heating degree days 81 194  
Since 1 July heating degree days 449 802  
Cooling Degree Days 1 0  
Month to date cooling degree days 6 0  
Year to date cooling degree days 28 2  
Growing Degree Days 14 (Base 50)    
Moisture  
Dew Point 62 °F    
Average Humidity 96    
Maximum Humidity 100    
Minimum Humidity 73    
Precipitation  
Precipitation 0.11 in 0.16 in 2.96 in (1990)
Month to date precipitation 2.04 2.09  
Year to date precipitation 26.32 40.91  
Sea Level Pressure  
Sea Level Pressure 29.93 in    
Wind  
Wind Speed 4 mph (South)    
Max Wind Speed 10 mph    
Max Gust Speed -    
Visibility 9 miles    
Events      
T = Trace of Precipitation, MM = Missing Value Source: NWS Daily Summary

Daily Weather History Graph

Daily Weather History Graph

Search for Another Location

Airport or City:

Trip Planner

Search our weather history database for the weather conditions in past years. The results will help you decide how hot, cold, wet, or windy it might be!

Date:

Astronomy

Oct. 18, 2014 Rise Set
Actual Time 7:34 AM PDT 6:28 PM PDT
Civil Twilight 7:05 AM PDT 6:57 PM PDT
Nautical Twilight 6:32 AM PDT 7:30 PM PDT
Astronomical Twilight 5:59 AM PDT 8:03 PM PDT
Moon 2:30 AM PDT (10/18) 3:59 PM PDT (10/18)
Length of Visible Light 11h 51m
Length of Day
10h 54m
Waning Crescent, 23% of the Moon is Illuminated
Oct 18
Waning Crescent
Oct 23
New
Oct 30
First Quarter
Nov 6
Full
Nov 14
Last Quarter

Hourly Weather History & Observations

Time (PDT) Temp. Dew Point Humidity Pressure Visibility Wind Dir Wind Speed Gust Speed Precip Events Conditions
12:15 AM 60.8 °F 60.8 °F 100% 29.92 in 10.0 mi SE 3.5 mph - N/A   Overcast
12:35 AM 60.8 °F 60.8 °F 100% 29.92 in 10.0 mi Calm Calm - N/A   Overcast
12:55 AM 60.8 °F 60.8 °F 100% 29.92 in 8.0 mi SE 3.5 mph - N/A   Overcast
1:15 AM 60.8 °F 60.8 °F 100% 29.93 in 6.0 mi SSE 3.5 mph - N/A   Overcast
1:35 AM 60.8 °F 60.8 °F 100% 29.93 in 3.0 mi SE 3.5 mph - 0.01 in   Overcast
1:55 AM 60.8 °F 60.8 °F 100% 29.93 in 2.5 mi SSE 3.5 mph - 0.02 in   Overcast
2:15 AM 60.8 °F 60.8 °F 100% 29.93 in 3.0 mi SE 4.6 mph - 0.02 in   Overcast
2:35 AM 60.8 °F 60.8 °F 100% 29.94 in 9.0 mi SE 4.6 mph - 0.02 in   Overcast
2:55 AM 60.8 °F 60.8 °F 100% 29.94 in 3.0 mi SE 4.6 mph - 0.05 in   Overcast
3:15 AM 60.8 °F 60.8 °F 100% 29.94 in 4.0 mi SE 4.6 mph - 0.01 in   Overcast
3:35 AM 60.8 °F 60.8 °F 100% 29.95 in 9.0 mi Calm Calm - 0.01 in   Overcast
3:55 AM 60.8 °F 60.8 °F 100% 29.95 in 10.0 mi SE 3.5 mph - 0.02 in   Overcast
4:15 AM 60.8 °F 60.8 °F 100% 29.95 in 10.0 mi SSE 3.5 mph - N/A   Overcast
4:35 AM 60.8 °F 60.8 °F 100% 29.95 in 10.0 mi Calm Calm - N/A   Overcast
4:55 AM 60.8 °F 60.8 °F 100% 29.95 in 8.0 mi Calm Calm - N/A   Overcast
5:15 AM 60.8 °F 60.8 °F 100% 29.95 in 10.0 mi Calm Calm - N/A   Overcast
5:35 AM 60.8 °F 60.8 °F 100% 29.95 in 10.0 mi Calm Calm - 0.01 in   Overcast
5:55 AM 60.8 °F 60.8 °F 100% 29.95 in 10.0 mi Calm Calm - 0.01 in   Overcast
6:15 AM 60.8 °F 60.8 °F 100% 29.96 in 10.0 mi Calm Calm - N/A   Overcast
6:35 AM 60.8 °F 60.8 °F 100% 29.96 in 10.0 mi Calm Calm - N/A   Overcast
6:55 AM 60.8 °F 60.8 °F 100% 29.96 in 8.0 mi Calm Calm - N/A   Overcast
7:15 AM 60.8 °F 60.8 °F 100% 29.97 in 10.0 mi Calm Calm - N/A   Overcast
7:35 AM 60.8 °F 60.8 °F 100% 29.97 in 10.0 mi Calm Calm - N/A   Overcast
7:55 AM 60.8 °F 60.8 °F 100% 29.97 in 9.0 mi Calm Calm - N/A   Overcast
8:15 AM 60.8 °F 60.8 °F 100% 29.97 in 2.0 mi ESE 4.6 mph - N/A   Overcast
8:35 AM 60.8 °F 60.8 °F 100% 29.97 in 2.0 mi ESE 3.5 mph - N/A   Overcast
8:55 AM 60.8 °F 60.8 °F 100% 29.98 in 2.0 mi Calm Calm - N/A   Overcast
9:15 AM 60.8 °F 60.8 °F 100% 29.98 in 6.0 mi Calm Calm - N/A   Overcast
9:35 AM 62.6 °F 62.6 °F 100% 29.99 in 10.0 mi ESE 3.5 mph - N/A   Overcast
9:55 AM 62.6 °F 62.6 °F 100% 29.99 in 8.0 mi SE 3.5 mph - N/A   Overcast
10:15 AM 62.6 °F 62.6 °F 100% 29.99 in 10.0 mi SSE 5.8 mph - N/A   Overcast
10:35 AM 62.6 °F 62.6 °F 100% 29.99 in 10.0 mi Calm Calm - N/A   Overcast
10:55 AM 64.4 °F 64.4 °F 100% 29.98 in 10.0 mi SE 5.8 mph - N/A   Overcast
11:15 AM 64.4 °F 64.4 °F 100% 29.98 in 10.0 mi SE 9.2 mph - N/A   Overcast
11:35 AM 64.4 °F 64.4 °F 100% 29.97 in 10.0 mi SE 8.1 mph - N/A   Overcast
11:55 AM 66.2 °F 66.2 °F 100% 29.97 in 10.0 mi SE 6.9 mph - N/A   Overcast
12:15 PM 66.2 °F 64.4 °F 94% 29.96 in 10.0 mi SSE 4.6 mph - N/A   Overcast
12:35 PM 66.2 °F 64.4 °F 94% 29.96 in 10.0 mi ESE 3.5 mph - N/A   Overcast
12:55 PM 69.8 °F 64.4 °F 83% 29.96 in 10.0 mi East 3.5 mph - N/A   Overcast
1:15 PM 66.2 °F 64.4 °F 94% 29.95 in 10.0 mi West 8.1 mph - N/A   Overcast
1:35 PM 64.4 °F 64.4 °F 100% 29.95 in 10.0 mi West 8.1 mph - N/A   Overcast
1:55 PM 64.4 °F 64.4 °F 100% 29.94 in 10.0 mi West 5.8 mph - N/A   Overcast
2:15 PM 66.2 °F 64.4 °F 94% 29.93 in 10.0 mi Calm Calm - N/A   Mostly Cloudy
2:35 PM 66.2 °F 62.6 °F 88% 29.92 in 10.0 mi NNE 3.5 mph - N/A   Mostly Cloudy
2:55 PM 66.2 °F 62.6 °F 88% 29.92 in 10.0 mi Calm Calm - N/A   Partly Cloudy
3:15 PM 68.0 °F 62.6 °F 83% 29.91 in 10.0 mi WNW 5.8 mph - N/A   Clear
3:35 PM 68.0 °F 60.8 °F 78% 29.91 in 10.0 mi WNW 8.1 mph - N/A   Clear
3:55 PM 68.0 °F 60.8 °F 78% 29.90 in 10.0 mi West 10.4 mph - N/A   Clear
4:15 PM 69.8 °F 60.8 °F 73% 29.90 in 10.0 mi WSW 11.5 mph - N/A   Clear
4:35 PM 68.0 °F 60.8 °F 78% 29.90 in 10.0 mi WSW 11.5 mph - N/A   Clear
4:55 PM 66.2 °F 60.8 °F 83% 29.89 in 10.0 mi WSW 10.4 mph - N/A   Clear
5:15 PM 66.2 °F 60.8 °F 83% 29.89 in 10.0 mi West 8.1 mph - N/A   Clear
5:35 PM 64.4 °F 62.6 °F 94% 29.89 in 8.0 mi West 8.1 mph - N/A   Clear
5:55 PM 64.4 °F 62.6 °F 94% 29.88 in 10.0 mi WSW 9.2 mph - N/A   Clear
6:15 PM 64.4 °F 60.8 °F 88% 29.88 in 10.0 mi WSW 9.2 mph - N/A   Clear
6:35 PM 64.4 °F 62.6 °F 94% 29.88 in 10.0 mi West 10.4 mph - 0.01 in   Clear
6:55 PM 62.6 °F 60.8 °F 94% 29.88 in 10.0 mi WSW 10.4 mph - 0.01 in   Partly Cloudy
7:15 PM 62.6 °F 60.8 °F 94% 29.88 in 10.0 mi SSW 4.6 mph - N/A   Mostly Cloudy
7:35 PM 62.6 °F 62.6 °F 100% 29.88 in 10.0 mi South 5.8 mph - N/A   Overcast
7:55 PM 62.6 °F 62.6 °F 100% 29.88 in 10.0 mi South 5.8 mph - N/A   Overcast
8:15 PM 62.6 °F 62.6 °F 100% 29.88 in 10.0 mi South 5.8 mph - N/A   Overcast
8:35 PM 62.6 °F 62.6 °F 100% 29.88 in 10.0 mi South 3.5 mph - N/A   Overcast
8:55 PM 62.6 °F 60.8 °F 94% 29.88 in 10.0 mi Calm Calm - N/A   Overcast
9:15 PM 62.6 °F 60.8 °F 94% 29.88 in 10.0 mi Calm Calm - N/A   Overcast
9:35 PM 60.8 °F 60.8 °F 100% 29.87 in 10.0 mi Calm Calm - N/A   Overcast
9:55 PM 60.8 °F 60.8 °F 100% 29.86 in 10.0 mi Calm Calm - N/A   Overcast
10:15 PM 60.8 °F 60.8 °F 100% 29.86 in 10.0 mi SE 3.5 mph - N/A   Overcast
10:35 PM 60.8 °F 60.8 °F 100% 29.85 in 10.0 mi Calm Calm - N/A   Overcast
10:55 PM 60.8 °F 60.8 °F 100% 29.85 in 10.0 mi SSE 4.6 mph - N/A   Overcast
11:15 PM 62.6 °F 60.8 °F 94% 29.85 in 10.0 mi Calm Calm - N/A   Overcast
11:35 PM 60.8 °F 60.8 °F 100% 29.84 in 10.0 mi Calm Calm - N/A   Overcast
11:55 PM 60.8 °F 60.8 °F 100% 29.84 in 10.0 mi Calm Calm - N/A   Overcast